sensor_id;sensor_type;location;lat;lon;timestamp;P1;durP1;ratioP1;P2;durP2;ratioP2
9809;SDS011;4944;52.514;13.192;2023-03-08T00:00:47;1.83;;;1.33;;
9809;SDS011;4944;52.514;13.192;2023-03-08T00:03:14;3.43;;;1.50;;
9809;SDS011;4944;52.514;13.192;2023-03-08T00:05:41;2.57;;;1.53;;
9809;SDS011;4944;52.514;13.192;2023-03-08T00:08:09;5.63;;;3.80;;
9809;SDS011;4944;52.514;13.192;2023-03-08T00:10:36;3.00;;;2.07;;
9809;SDS011;4944;52.514;13.192;2023-03-08T00:13:03;2.63;;;1.40;;
9809;SDS011;4944;52.514;13.192;2023-03-08T00:15:30;1.70;;;1.60;;
9809;SDS011;4944;52.514;13.192;2023-03-08T00:17:57;5.07;;;1.57;;
9809;SDS011;4944;52.514;13.192;2023-03-08T00:20:24;2.33;;;1.63;;
9809;SDS011;4944;52.514;13.192;2023-03-08T00:22:51;1.73;;;1.30;;
9809;SDS011;4944;52.514;13.192;2023-03-08T00:25:19;2.43;;;1.37;;
9809;SDS011;4944;52.514;13.192;2023-03-08T00:27:46;4.10;;;1.47;;
9809;SDS011;4944;52.514;13.192;2023-03-08T00:30:13;3.33;;;2.10;;
9809;SDS011;4944;52.514;13.192;2023-03-08T00:32:41;2.70;;;1.73;;
9809;SDS011;4944;52.514;13.192;2023-03-08T00:35:08;3.00;;;1.57;;
9809;SDS011;4944;52.514;13.192;2023-03-08T00:37:35;2.40;;;1.47;;
9809;SDS011;4944;52.514;13.192;2023-03-08T00:40:02;2.50;;;1.80;;
9809;SDS011;4944;52.514;13.192;2023-03-08T00:42:31;1.50;;;1.40;;
9809;SDS011;4944;52.514;13.192;2023-03-08T00:44:58;4.93;;;1.70;;
9809;SDS011;4944;52.514;13.192;2023-03-08T00:47:25;4.90;;;1.70;;
9809;SDS011;4944;52.514;13.192;2023-03-08T00:49:51;1.67;;;1.50;;
9809;SDS011;4944;52.514;13.192;2023-03-08T00:52:18;3.23;;;1.70;;
9809;SDS011;4944;52.514;13.192;2023-03-08T00:54:45;2.13;;;1.80;;
9809;SDS011;4944;52.514;13.192;2023-03-08T00:57:12;3.33;;;1.63;;
9809;SDS011;4944;52.514;13.192;2023-03-08T00:59:41;1.97;;;1.63;;
9809;SDS011;4944;52.514;13.192;2023-03-08T01:02:08;1.50;;;1.40;;
9809;SDS011;4944;52.514;13.192;2023-03-08T01:04:35;2.23;;;1.80;;
9809;SDS011;4944;52.514;13.192;2023-03-08T01:07:02;1.77;;;1.67;;
9809;SDS011;4944;52.514;13.192;2023-03-08T01:09:29;2.10;;;1.60;;
9809;SDS011;4944;52.514;13.192;2023-03-08T01:11:56;3.03;;;1.70;;
9809;SDS011;4944;52.514;13.192;2023-03-08T01:14:23;3.23;;;1.83;;
9809;SDS011;4944;52.514;13.192;2023-03-08T01:16:51;3.50;;;2.07;;
9809;SDS011;4944;52.514;13.192;2023-03-08T01:19:18;2.20;;;2.00;;
9809;SDS011;4944;52.514;13.192;2023-03-08T01:21:45;4.30;;;2.10;;
9809;SDS011;4944;52.514;13.192;2023-03-08T01:24:12;4.57;;;2.33;;
9809;SDS011;4944;52.514;13.192;2023-03-08T01:26:39;3.93;;;2.17;;
9809;SDS011;4944;52.514;13.192;2023-03-08T01:29:05;3.77;;;2.20;;
9809;SDS011;4944;52.514;13.192;2023-03-08T01:31:32;3.43;;;2.43;;
9809;SDS011;4944;52.514;13.192;2023-03-08T01:34:00;2.67;;;2.00;;
9809;SDS011;4944;52.514;13.192;2023-03-08T01:36:27;2.90;;;2.70;;
9809;SDS011;4944;52.514;13.192;2023-03-08T01:38:54;2.80;;;2.40;;
9809;SDS011;4944;52.514;13.192;2023-03-08T01:41:22;3.83;;;2.27;;
9809;SDS011;4944;52.514;13.192;2023-03-08T01:43:50;4.87;;;2.73;;
9809;SDS011;4944;52.514;13.192;2023-03-08T01:46:27;3.07;;;2.53;;
9809;SDS011;4944;52.514;13.192;2023-03-08T01:48:58;3.10;;;2.80;;
9809;SDS011;4944;52.514;13.192;2023-03-08T01:51:32;4.90;;;2.70;;
9809;SDS011;4944;52.514;13.192;2023-03-08T01:54:03;3.10;;;2.90;;
9809;SDS011;4944;52.514;13.192;2023-03-08T01:56:35;3.10;;;2.80;;
9809;SDS011;4944;52.514;13.192;2023-03-08T01:59:02;3.13;;;2.93;;
9809;SDS011;4944;52.514;13.192;2023-03-08T02:01:29;3.40;;;3.00;;
9809;SDS011;4944;52.514;13.192;2023-03-08T02:03:58;5.57;;;3.27;;
9809;SDS011;4944;52.514;13.192;2023-03-08T02:06:27;4.53;;;2.90;;
9809;SDS011;4944;52.514;13.192;2023-03-08T02:08:54;5.13;;;4.73;;
9809;SDS011;4944;52.514;13.192;2023-03-08T02:11:21;4.80;;;3.37;;
9809;SDS011;4944;52.514;13.192;2023-03-08T02:13:49;4.57;;;3.80;;
9809;SDS011;4944;52.514;13.192;2023-03-08T02:16:18;4.83;;;3.40;;
9809;SDS011;4944;52.514;13.192;2023-03-08T02:18:53;4.13;;;3.73;;
9809;SDS011;4944;52.514;13.192;2023-03-08T02:21:22;4.80;;;3.97;;
9809;SDS011;4944;52.514;13.192;2023-03-08T02:23:51;6.70;;;4.00;;
9809;SDS011;4944;52.514;13.192;2023-03-08T02:26:18;4.27;;;3.90;;
9809;SDS011;4944;52.514;13.192;2023-03-08T02:28:45;7.27;;;4.23;;
9809;SDS011;4944;52.514;13.192;2023-03-08T02:31:13;4.60;;;3.77;;
9809;SDS011;4944;52.514;13.192;2023-03-08T02:33:40;4.73;;;4.17;;
9809;SDS011;4944;52.514;13.192;2023-03-08T02:36:07;8.50;;;4.80;;
9809;SDS011;4944;52.514;13.192;2023-03-08T02:38:35;5.60;;;4.80;;
9809;SDS011;4944;52.514;13.192;2023-03-08T02:41:04;5.33;;;4.60;;
9809;SDS011;4944;52.514;13.192;2023-03-08T02:43:31;5.17;;;4.67;;
9809;SDS011;4944;52.514;13.192;2023-03-08T02:45:58;7.40;;;4.50;;
9809;SDS011;4944;52.514;13.192;2023-03-08T02:48:25;8.83;;;5.13;;
9809;SDS011;4944;52.514;13.192;2023-03-08T02:50:52;8.00;;;5.10;;
9809;SDS011;4944;52.514;13.192;2023-03-08T02:53:18;7.80;;;5.03;;
9809;SDS011;4944;52.514;13.192;2023-03-08T02:55:45;6.87;;;4.90;;
9809;SDS011;4944;52.514;13.192;2023-03-08T02:58:14;5.23;;;4.73;;
9809;SDS011;4944;52.514;13.192;2023-03-08T03:00:41;5.90;;;5.30;;
9809;SDS011;4944;52.514;13.192;2023-03-08T03:03:08;8.57;;;4.90;;
9809;SDS011;4944;52.514;13.192;2023-03-08T03:05:38;7.70;;;5.10;;
9809;SDS011;4944;52.514;13.192;2023-03-08T03:08:06;7.13;;;5.23;;
9809;SDS011;4944;52.514;13.192;2023-03-08T03:10:33;5.50;;;4.90;;
9809;SDS011;4944;52.514;13.192;2023-03-08T03:13:00;6.40;;;4.93;;
9809;SDS011;4944;52.514;13.192;2023-03-08T03:15:29;7.53;;;5.57;;
9809;SDS011;4944;52.514;13.192;2023-03-08T03:17:56;5.93;;;5.27;;
9809;SDS011;4944;52.514;13.192;2023-03-08T03:20:23;6.67;;;5.07;;
9809;SDS011;4944;52.514;13.192;2023-03-08T03:22:50;5.70;;;5.17;;
9809;SDS011;4944;52.514;13.192;2023-03-08T03:25:17;6.67;;;5.47;;
9809;SDS011;4944;52.514;13.192;2023-03-08T03:27:44;8.47;;;5.23;;
9809;SDS011;4944;52.514;13.192;2023-03-08T03:30:11;8.30;;;5.77;;
9809;SDS011;4944;52.514;13.192;2023-03-08T03:32:40;6.07;;;5.47;;
9809;SDS011;4944;52.514;13.192;2023-03-08T03:35:07;5.87;;;5.17;;
9809;SDS011;4944;52.514;13.192;2023-03-08T03:37:34;5.50;;;5.00;;
9809;SDS011;4944;52.514;13.192;2023-03-08T03:40:01;6.43;;;5.37;;
9809;SDS011;4944;52.514;13.192;2023-03-08T03:42:28;6.10;;;5.50;;
9809;SDS011;4944;52.514;13.192;2023-03-08T03:44:55;6.00;;;5.40;;
9809;SDS011;4944;52.514;13.192;2023-03-08T03:47:22;6.00;;;5.40;;
9809;SDS011;4944;52.514;13.192;2023-03-08T03:49:50;6.60;;;5.50;;
9809;SDS011;4944;52.514;13.192;2023-03-08T03:52:17;6.60;;;6.00;;
9809;SDS011;4944;52.514;13.192;2023-03-08T03:54:44;5.80;;;5.30;;
9809;SDS011;4944;52.514;13.192;2023-03-08T03:57:11;5.97;;;5.07;;
9809;SDS011;4944;52.514;13.192;2023-03-08T03:59:38;7.20;;;5.23;;
9809;SDS011;4944;52.514;13.192;2023-03-08T04:02:04;5.83;;;5.27;;
9809;SDS011;4944;52.514;13.192;2023-03-08T04:04:31;6.63;;;5.40;;
9809;SDS011;4944;52.514;13.192;2023-03-08T04:07:00;6.30;;;5.37;;
9809;SDS011;4944;52.514;13.192;2023-03-08T04:09:26;5.87;;;5.30;;
9809;SDS011;4944;52.514;13.192;2023-03-08T04:11:53;8.17;;;5.27;;
9809;SDS011;4944;52.514;13.192;2023-03-08T04:14:20;7.33;;;5.10;;
9809;SDS011;4944;52.514;13.192;2023-03-08T04:16:47;7.03;;;5.37;;
9809;SDS011;4944;52.514;13.192;2023-03-08T04:19:14;5.73;;;5.20;;
9809;SDS011;4944;52.514;13.192;2023-03-08T04:21:41;6.33;;;4.77;;
9809;SDS011;4944;52.514;13.192;2023-03-08T04:24:09;5.73;;;5.13;;
9809;SDS011;4944;52.514;13.192;2023-03-08T04:26:36;5.90;;;5.30;;
9809;SDS011;4944;52.514;13.192;2023-03-08T04:29:03;5.80;;;5.30;;
9809;SDS011;4944;52.514;13.192;2023-03-08T04:31:31;8.43;;;5.27;;
9809;SDS011;4944;52.514;13.192;2023-03-08T04:33:59;5.87;;;4.80;;
9809;SDS011;4944;52.514;13.192;2023-03-08T04:36:26;5.87;;;5.20;;
9809;SDS011;4944;52.514;13.192;2023-03-08T04:38:54;6.10;;;5.17;;
9809;SDS011;4944;52.514;13.192;2023-03-08T04:41:22;6.77;;;5.27;;
9809;SDS011;4944;52.514;13.192;2023-03-08T04:43:49;6.57;;;5.40;;
9809;SDS011;4944;52.514;13.192;2023-03-08T04:46:18;7.67;;;5.67;;
9809;SDS011;4944;52.514;13.192;2023-03-08T04:48:47;6.43;;;5.13;;
9809;SDS011;4944;52.514;13.192;2023-03-08T04:51:16;5.13;;;4.63;;
9809;SDS011;4944;52.514;13.192;2023-03-08T04:53:44;5.20;;;4.77;;
9809;SDS011;4944;52.514;13.192;2023-03-08T04:56:12;5.17;;;4.57;;
9809;SDS011;4944;52.514;13.192;2023-03-08T04:58:42;5.70;;;5.10;;
9809;SDS011;4944;52.514;13.192;2023-03-08T05:01:10;5.23;;;4.50;;
9809;SDS011;4944;52.514;13.192;2023-03-08T05:03:37;5.10;;;4.60;;
9809;SDS011;4944;52.514;13.192;2023-03-08T05:06:05;5.23;;;4.60;;
9809;SDS011;4944;52.514;13.192;2023-03-08T05:08:32;5.27;;;4.83;;
9809;SDS011;4944;52.514;13.192;2023-03-08T05:11:00;6.87;;;4.70;;
9809;SDS011;4944;52.514;13.192;2023-03-08T05:13:30;4.67;;;4.27;;
9809;SDS011;4944;52.514;13.192;2023-03-08T05:15:59;5.90;;;4.87;;
9809;SDS011;4944;52.514;13.192;2023-03-08T05:18:26;5.50;;;4.73;;
9809;SDS011;4944;52.514;13.192;2023-03-08T05:20:54;7.77;;;4.87;;
9809;SDS011;4944;52.514;13.192;2023-03-08T05:23:22;4.83;;;4.43;;
9809;SDS011;4944;52.514;13.192;2023-03-08T05:25:50;5.20;;;4.70;;
9809;SDS011;4944;52.514;13.192;2023-03-08T05:28:18;5.07;;;4.60;;
9809;SDS011;4944;52.514;13.192;2023-03-08T05:30:45;5.17;;;4.73;;
9809;SDS011;4944;52.514;13.192;2023-03-08T05:33:14;7.07;;;5.10;;
9809;SDS011;4944;52.514;13.192;2023-03-08T05:35:41;5.67;;;4.70;;
9809;SDS011;4944;52.514;13.192;2023-03-08T05:38:08;6.70;;;4.53;;
9809;SDS011;4944;52.514;13.192;2023-03-08T05:40:36;5.37;;;4.87;;
9809;SDS011;4944;52.514;13.192;2023-03-08T05:43:03;5.97;;;4.70;;
9809;SDS011;4944;52.514;13.192;2023-03-08T05:45:30;5.27;;;4.73;;
9809;SDS011;4944;52.514;13.192;2023-03-08T05:47:57;5.70;;;4.43;;
9809;SDS011;4944;52.514;13.192;2023-03-08T05:50:25;7.57;;;5.20;;
9809;SDS011;4944;52.514;13.192;2023-03-08T05:52:52;5.30;;;4.90;;
9809;SDS011;4944;52.514;13.192;2023-03-08T05:55:19;6.23;;;4.87;;
9809;SDS011;4944;52.514;13.192;2023-03-08T05:57:46;7.53;;;4.97;;
9809;SDS011;4944;52.514;13.192;2023-03-08T06:00:14;5.43;;;4.97;;
9809;SDS011;4944;52.514;13.192;2023-03-08T06:02:43;4.97;;;4.47;;
9809;SDS011;4944;52.514;13.192;2023-03-08T06:05:10;6.53;;;4.63;;
9809;SDS011;4944;52.514;13.192;2023-03-08T06:07:38;5.67;;;5.10;;
9809;SDS011;4944;52.514;13.192;2023-03-08T06:10:08;5.30;;;4.77;;
9809;SDS011;4944;52.514;13.192;2023-03-08T06:12:35;5.67;;;5.17;;
9809;SDS011;4944;52.514;13.192;2023-03-08T06:15:02;4.93;;;4.37;;
9809;SDS011;4944;52.514;13.192;2023-03-08T06:17:30;5.33;;;4.93;;
9809;SDS011;4944;52.514;13.192;2023-03-08T06:19:57;5.37;;;4.83;;
9809;SDS011;4944;52.514;13.192;2023-03-08T06:22:24;4.73;;;4.33;;
9809;SDS011;4944;52.514;13.192;2023-03-08T06:24:52;5.30;;;4.73;;
9809;SDS011;4944;52.514;13.192;2023-03-08T06:27:19;5.37;;;4.80;;
9809;SDS011;4944;52.514;13.192;2023-03-08T06:29:46;5.30;;;4.80;;
9809;SDS011;4944;52.514;13.192;2023-03-08T06:32:14;5.10;;;4.70;;
9809;SDS011;4944;52.514;13.192;2023-03-08T06:34:41;5.63;;;5.10;;
9809;SDS011;4944;52.514;13.192;2023-03-08T06:37:09;5.17;;;4.67;;
9809;SDS011;4944;52.514;13.192;2023-03-08T06:39:36;6.23;;;4.93;;
9809;SDS011;4944;52.514;13.192;2023-03-08T06:42:04;5.60;;;5.10;;
9809;SDS011;4944;52.514;13.192;2023-03-08T06:44:31;5.57;;;5.07;;
9809;SDS011;4944;52.514;13.192;2023-03-08T06:46:58;5.27;;;4.87;;
9809;SDS011;4944;52.514;13.192;2023-03-08T06:49:25;5.40;;;4.97;;
9809;SDS011;4944;52.514;13.192;2023-03-08T06:51:52;5.47;;;5.07;;
9809;SDS011;4944;52.514;13.192;2023-03-08T06:54:19;7.23;;;5.80;;
9809;SDS011;4944;52.514;13.192;2023-03-08T06:56:46;5.63;;;5.00;;
9809;SDS011;4944;52.514;13.192;2023-03-08T06:59:14;5.90;;;5.33;;
9809;SDS011;4944;52.514;13.192;2023-03-08T07:01:41;5.40;;;4.97;;
9809;SDS011;4944;52.514;13.192;2023-03-08T07:04:08;5.53;;;4.93;;
9809;SDS011;4944;52.514;13.192;2023-03-08T07:06:35;5.83;;;5.17;;
9809;SDS011;4944;52.514;13.192;2023-03-08T07:09:02;5.23;;;4.77;;
9809;SDS011;4944;52.514;13.192;2023-03-08T07:11:29;6.57;;;5.00;;
9809;SDS011;4944;52.514;13.192;2023-03-08T07:13:57;6.10;;;5.50;;
9809;SDS011;4944;52.514;13.192;2023-03-08T07:16:26;6.00;;;5.40;;
9809;SDS011;4944;52.514;13.192;2023-03-08T07:18:53;6.07;;;5.23;;
9809;SDS011;4944;52.514;13.192;2023-03-08T07:21:21;5.67;;;5.17;;
9809;SDS011;4944;52.514;13.192;2023-03-08T07:23:49;5.73;;;5.20;;
9809;SDS011;4944;52.514;13.192;2023-03-08T07:26:16;5.60;;;5.10;;
9809;SDS011;4944;52.514;13.192;2023-03-08T07:28:43;5.83;;;5.30;;
9809;SDS011;4944;52.514;13.192;2023-03-08T07:31:13;5.70;;;5.00;;
9809;SDS011;4944;52.514;13.192;2023-03-08T07:33:42;6.07;;;5.47;;
9809;SDS011;4944;52.514;13.192;2023-03-08T07:36:09;6.07;;;5.47;;
9809;SDS011;4944;52.514;13.192;2023-03-08T07:38:36;6.30;;;5.70;;
9809;SDS011;4944;52.514;13.192;2023-03-08T07:41:03;5.63;;;5.07;;
9809;SDS011;4944;52.514;13.192;2023-03-08T07:43:29;5.97;;;5.47;;
9809;SDS011;4944;52.514;13.192;2023-03-08T07:45:58;5.97;;;5.47;;
9809;SDS011;4944;52.514;13.192;2023-03-08T07:48:26;6.10;;;5.50;;
9809;SDS011;4944;52.514;13.192;2023-03-08T07:50:58;5.77;;;5.30;;
9809;SDS011;4944;52.514;13.192;2023-03-08T07:53:27;5.83;;;5.33;;
9809;SDS011;4944;52.514;13.192;2023-03-08T07:55:55;7.93;;;5.80;;
9809;SDS011;4944;52.514;13.192;2023-03-08T07:58:23;5.93;;;5.40;;
9809;SDS011;4944;52.514;13.192;2023-03-08T08:00:50;5.43;;;4.90;;
9809;SDS011;4944;52.514;13.192;2023-03-08T08:03:17;6.77;;;5.90;;
9809;SDS011;4944;52.514;13.192;2023-03-08T08:05:44;5.83;;;5.23;;
9809;SDS011;4944;52.514;13.192;2023-03-08T08:08:12;5.60;;;5.10;;
9809;SDS011;4944;52.514;13.192;2023-03-08T08:10:39;5.33;;;4.90;;
9809;SDS011;4944;52.514;13.192;2023-03-08T08:13:06;6.50;;;5.70;;
9809;SDS011;4944;52.514;13.192;2023-03-08T08:15:32;5.87;;;5.37;;
9809;SDS011;4944;52.514;13.192;2023-03-08T08:17:59;6.53;;;5.93;;
9809;SDS011;4944;52.514;13.192;2023-03-08T08:20:28;6.17;;;5.63;;
9809;SDS011;4944;52.514;13.192;2023-03-08T08:22:55;5.97;;;5.47;;
9809;SDS011;4944;52.514;13.192;2023-03-08T08:25:23;5.00;;;4.60;;
9809;SDS011;4944;52.514;13.192;2023-03-08T08:27:50;6.10;;;5.50;;
9809;SDS011;4944;52.514;13.192;2023-03-08T08:30:17;5.20;;;4.70;;
9809;SDS011;4944;52.514;13.192;2023-03-08T08:32:44;5.03;;;4.53;;
9809;SDS011;4944;52.514;13.192;2023-03-08T08:35:11;4.47;;;4.03;;
9809;SDS011;4944;52.514;13.192;2023-03-08T08:37:38;4.50;;;4.10;;
9809;SDS011;4944;52.514;13.192;2023-03-08T08:40:05;3.83;;;3.53;;
9809;SDS011;4944;52.514;13.192;2023-03-08T08:42:36;3.77;;;3.47;;
9809;SDS011;4944;52.514;13.192;2023-03-08T08:45:03;6.13;;;3.70;;
9809;SDS011;4944;52.514;13.192;2023-03-08T08:47:31;3.87;;;3.57;;
9809;SDS011;4944;52.514;13.192;2023-03-08T08:49:58;3.63;;;3.30;;
9809;SDS011;4944;52.514;13.192;2023-03-08T08:52:25;3.40;;;3.07;;
9809;SDS011;4944;52.514;13.192;2023-03-08T08:54:52;3.60;;;2.80;;
9809;SDS011;4944;52.514;13.192;2023-03-08T08:57:19;3.37;;;2.70;;
9809;SDS011;4944;52.514;13.192;2023-03-08T08:59:47;3.40;;;3.07;;
9809;SDS011;4944;52.514;13.192;2023-03-08T09:02:14;4.17;;;2.97;;
9809;SDS011;4944;52.514;13.192;2023-03-08T09:04:41;3.73;;;2.60;;
9809;SDS011;4944;52.514;13.192;2023-03-08T09:07:07;2.57;;;2.40;;
9809;SDS011;4944;52.514;13.192;2023-03-08T09:09:34;3.37;;;2.77;;
9809;SDS011;4944;52.514;13.192;2023-03-08T09:12:01;3.10;;;2.50;;
9809;SDS011;4944;52.514;13.192;2023-03-08T09:14:28;2.30;;;2.10;;
9809;SDS011;4944;52.514;13.192;2023-03-08T09:16:56;3.00;;;2.10;;
9809;SDS011;4944;52.514;13.192;2023-03-08T09:19:23;2.17;;;2.07;;
9809;SDS011;4944;52.514;13.192;2023-03-08T09:21:50;3.20;;;2.53;;
9809;SDS011;4944;52.514;13.192;2023-03-08T09:24:17;2.33;;;2.13;;
9809;SDS011;4944;52.514;13.192;2023-03-08T09:26:44;3.07;;;2.87;;
9809;SDS011;4944;52.514;13.192;2023-03-08T09:29:11;3.07;;;2.80;;
9809;SDS011;4944;52.514;13.192;2023-03-08T09:31:38;2.90;;;2.70;;
9809;SDS011;4944;52.514;13.192;2023-03-08T09:34:08;2.73;;;2.53;;
9809;SDS011;4944;52.514;13.192;2023-03-08T09:36:37;2.50;;;2.40;;
9809;SDS011;4944;52.514;13.192;2023-03-08T09:39:05;3.03;;;2.27;;
9809;SDS011;4944;52.514;13.192;2023-03-08T09:41:48;2.37;;;2.17;;
9809;SDS011;4944;52.514;13.192;2023-03-08T09:44:25;2.70;;;2.50;;
9809;SDS011;4944;52.514;13.192;2023-03-08T09:47:15;2.60;;;2.40;;
9809;SDS011;4944;52.514;13.192;2023-03-08T09:49:52;2.87;;;2.50;;
9809;SDS011;4944;52.514;13.192;2023-03-08T09:52:21;2.60;;;2.50;;
9809;SDS011;4944;52.514;13.192;2023-03-08T09:54:53;2.60;;;2.50;;
9809;SDS011;4944;52.514;13.192;2023-03-08T09:57:22;2.33;;;2.23;;
9809;SDS011;4944;52.514;13.192;2023-03-08T09:59:52;3.97;;;3.10;;
9809;SDS011;4944;52.514;13.192;2023-03-08T10:02:25;3.80;;;3.50;;
9809;SDS011;4944;52.514;13.192;2023-03-08T10:05:03;3.37;;;2.50;;
9809;SDS011;4944;52.514;13.192;2023-03-08T10:07:36;2.70;;;2.10;;
9809;SDS011;4944;52.514;13.192;2023-03-08T10:13:14;2.40;;;2.20;;
9809;SDS011;4944;52.514;13.192;2023-03-08T10:15:55;2.57;;;2.30;;
9809;SDS011;4944;52.514;13.192;2023-03-08T10:18:30;3.87;;;2.43;;
9809;SDS011;4944;52.514;13.192;2023-03-08T10:21:09;2.60;;;2.40;;
9809;SDS011;4944;52.514;13.192;2023-03-08T10:23:40;3.23;;;2.40;;
9809;SDS011;4944;52.514;13.192;2023-03-08T10:26:09;2.00;;;1.90;;
9809;SDS011;4944;52.514;13.192;2023-03-08T10:28:37;2.57;;;2.37;;
9809;SDS011;4944;52.514;13.192;2023-03-08T10:31:14;2.20;;;2.10;;
9809;SDS011;4944;52.514;13.192;2023-03-08T10:33:45;2.30;;;2.20;;
9809;SDS011;4944;52.514;13.192;2023-03-08T10:36:17;3.80;;;3.17;;
9809;SDS011;4944;52.514;13.192;2023-03-08T10:38:54;2.70;;;2.50;;
9809;SDS011;4944;52.514;13.192;2023-03-08T10:41:26;6.13;;;5.50;;
9809;SDS011;4944;52.514;13.192;2023-03-08T10:43:57;3.23;;;3.00;;
9809;SDS011;4944;52.514;13.192;2023-03-08T10:46:24;2.70;;;2.50;;
9809;SDS011;4944;52.514;13.192;2023-03-08T10:48:54;2.60;;;2.40;;
9809;SDS011;4944;52.514;13.192;2023-03-08T10:51:33;2.23;;;2.13;;
9809;SDS011;4944;52.514;13.192;2023-03-08T10:54:00;2.60;;;2.40;;
9809;SDS011;4944;52.514;13.192;2023-03-08T10:56:30;2.67;;;2.47;;
9809;SDS011;4944;52.514;13.192;2023-03-08T10:59:02;2.27;;;2.10;;
9809;SDS011;4944;52.514;13.192;2023-03-08T11:01:31;2.53;;;2.40;;
9809;SDS011;4944;52.514;13.192;2023-03-08T11:04:00;2.30;;;2.20;;
9809;SDS011;4944;52.514;13.192;2023-03-08T11:06:28;2.43;;;2.23;;
9809;SDS011;4944;52.514;13.192;2023-03-08T11:08:58;2.67;;;2.47;;
9809;SDS011;4944;52.514;13.192;2023-03-08T11:11:25;2.80;;;2.60;;
9809;SDS011;4944;52.514;13.192;2023-03-08T11:13:53;2.33;;;2.23;;
9809;SDS011;4944;52.514;13.192;2023-03-08T11:16:30;2.37;;;2.20;;
9809;SDS011;4944;52.514;13.192;2023-03-08T11:19:31;3.50;;;1.73;;
9809;SDS011;4944;52.514;13.192;2023-03-08T11:22:09;2.77;;;2.50;;
9809;SDS011;4944;52.514;13.192;2023-03-08T11:25:00;2.30;;;2.20;;
9809;SDS011;4944;52.514;13.192;2023-03-08T11:27:40;2.20;;;2.10;;
9809;SDS011;4944;52.514;13.192;2023-03-08T11:30:31;2.60;;;2.40;;
9809;SDS011;4944;52.514;13.192;2023-03-08T11:36:01;2.40;;;2.30;;
9809;SDS011;4944;52.514;13.192;2023-03-08T11:38:31;2.13;;;2.03;;
9809;SDS011;4944;52.514;13.192;2023-03-08T11:41:03;2.70;;;2.30;;
9809;SDS011;4944;52.514;13.192;2023-03-08T11:43:48;2.10;;;2.00;;
9809;SDS011;4944;52.514;13.192;2023-03-08T11:46:29;1.90;;;1.80;;
9809;SDS011;4944;52.514;13.192;2023-03-08T11:49:20;2.47;;;2.00;;
9809;SDS011;4944;52.514;13.192;2023-03-08T11:52:03;2.00;;;1.80;;
9809;SDS011;4944;52.514;13.192;2023-03-08T11:54:40;3.43;;;2.00;;
9809;SDS011;4944;52.514;13.192;2023-03-08T11:57:18;2.30;;;2.07;;
9809;SDS011;4944;52.514;13.192;2023-03-08T11:59:46;2.73;;;2.20;;
9809;SDS011;4944;52.514;13.192;2023-03-08T12:02:17;2.47;;;2.00;;
9809;SDS011;4944;52.514;13.192;2023-03-08T12:04:54;2.00;;;1.90;;
9809;SDS011;4944;52.514;13.192;2023-03-08T12:07:26;2.33;;;2.17;;
9809;SDS011;4944;52.514;13.192;2023-03-08T12:10:00;1.97;;;1.87;;
9809;SDS011;4944;52.514;13.192;2023-03-08T12:12:34;2.77;;;2.07;;
9809;SDS011;4944;52.514;13.192;2023-03-08T12:15:10;4.00;;;2.17;;
9809;SDS011;4944;52.514;13.192;2023-03-08T12:17:45;2.00;;;1.80;;
9809;SDS011;4944;52.514;13.192;2023-03-08T12:20:17;3.23;;;2.10;;
9809;SDS011;4944;52.514;13.192;2023-03-08T12:22:46;2.00;;;1.80;;
9809;SDS011;4944;52.514;13.192;2023-03-08T12:25:23;2.00;;;1.90;;
9809;SDS011;4944;52.514;13.192;2023-03-08T12:27:57;2.13;;;2.03;;
9809;SDS011;4944;52.514;13.192;2023-03-08T12:30:32;2.17;;;1.97;;
9809;SDS011;4944;52.514;13.192;2023-03-08T12:33:08;3.87;;;2.10;;
9809;SDS011;4944;52.514;13.192;2023-03-08T12:35:48;2.00;;;1.90;;
9809;SDS011;4944;52.514;13.192;2023-03-08T12:38:33;2.23;;;2.13;;
9809;SDS011;4944;52.514;13.192;2023-03-08T12:41:01;2.60;;;2.40;;
9809;SDS011;4944;52.514;13.192;2023-03-08T12:43:33;3.03;;;2.30;;
9809;SDS011;4944;52.514;13.192;2023-03-08T12:46:03;4.93;;;2.10;;
9809;SDS011;4944;52.514;13.192;2023-03-08T12:48:32;2.47;;;2.27;;
9809;SDS011;4944;52.514;13.192;2023-03-08T12:51:02;2.87;;;2.40;;
9809;SDS011;4944;52.514;13.192;2023-03-08T12:53:37;2.57;;;2.47;;
9809;SDS011;4944;52.514;13.192;2023-03-08T12:56:14;2.47;;;2.27;;
9809;SDS011;4944;52.514;13.192;2023-03-08T12:58:51;2.40;;;2.20;;
9809;SDS011;4944;52.514;13.192;2023-03-08T13:01:25;2.50;;;2.30;;
9809;SDS011;4944;52.514;13.192;2023-03-08T13:03:58;2.20;;;2.10;;
9809;SDS011;4944;52.514;13.192;2023-03-08T13:06:31;2.20;;;2.10;;
9809;SDS011;4944;52.514;13.192;2023-03-08T13:09:32;2.73;;;2.53;;
9809;SDS011;4944;52.514;13.192;2023-03-08T13:12:10;3.00;;;2.63;;
9809;SDS011;4944;52.514;13.192;2023-03-08T13:14:57;2.80;;;2.60;;
9809;SDS011;4944;52.514;13.192;2023-03-08T13:17:33;2.90;;;2.70;;
9809;SDS011;4944;52.514;13.192;2023-03-08T13:20:08;2.90;;;2.70;;
9809;SDS011;4944;52.514;13.192;2023-03-08T13:22:44;2.90;;;2.67;;
9809;SDS011;4944;52.514;13.192;2023-03-08T13:25:21;2.40;;;2.20;;
9809;SDS011;4944;52.514;13.192;2023-03-08T13:27:57;2.60;;;2.50;;
9809;SDS011;4944;52.514;13.192;2023-03-08T13:30:32;3.40;;;2.87;;
9809;SDS011;4944;52.514;13.192;2023-03-08T13:33:04;2.40;;;2.30;;
9809;SDS011;4944;52.514;13.192;2023-03-08T13:35:33;3.40;;;2.57;;
9809;SDS011;4944;52.514;13.192;2023-03-08T13:38:00;3.83;;;2.70;;
9809;SDS011;4944;52.514;13.192;2023-03-08T13:40:28;2.93;;;2.73;;
9809;SDS011;4944;52.514;13.192;2023-03-08T13:42:56;3.20;;;2.87;;
9809;SDS011;4944;52.514;13.192;2023-03-08T13:45:26;3.13;;;2.90;;
9809;SDS011;4944;52.514;13.192;2023-03-08T13:47:55;3.10;;;2.90;;
9809;SDS011;4944;52.514;13.192;2023-03-08T13:50:25;3.20;;;2.90;;
9809;SDS011;4944;52.514;13.192;2023-03-08T13:52:55;3.33;;;3.03;;
9809;SDS011;4944;52.514;13.192;2023-03-08T13:55:24;3.23;;;2.93;;
9809;SDS011;4944;52.514;13.192;2023-03-08T13:57:55;3.07;;;2.87;;
9809;SDS011;4944;52.514;13.192;2023-03-08T14:00:24;3.03;;;2.83;;
9809;SDS011;4944;52.514;13.192;2023-03-08T14:02:52;3.97;;;3.57;;
9809;SDS011;4944;52.514;13.192;2023-03-08T14:05:23;3.43;;;3.23;;
9809;SDS011;4944;52.514;13.192;2023-03-08T14:07:54;3.40;;;3.20;;
9809;SDS011;4944;52.514;13.192;2023-03-08T14:10:23;3.73;;;3.30;;
9809;SDS011;4944;52.514;13.192;2023-03-08T14:12:55;3.80;;;3.57;;
9809;SDS011;4944;52.514;13.192;2023-03-08T14:15:23;3.87;;;3.53;;
9809;SDS011;4944;52.514;13.192;2023-03-08T14:17:50;4.30;;;3.90;;
9809;SDS011;4944;52.514;13.192;2023-03-08T14:20:19;4.57;;;4.00;;
9809;SDS011;4944;52.514;13.192;2023-03-08T14:22:48;4.20;;;3.90;;
9809;SDS011;4944;52.514;13.192;2023-03-08T14:25:24;3.83;;;3.53;;
9809;SDS011;4944;52.514;13.192;2023-03-08T14:27:52;3.80;;;3.47;;
9809;SDS011;4944;52.514;13.192;2023-03-08T14:30:20;5.07;;;4.37;;
9809;SDS011;4944;52.514;13.192;2023-03-08T14:32:56;4.33;;;4.03;;
9809;SDS011;4944;52.514;13.192;2023-03-08T14:35:27;3.90;;;3.70;;
9809;SDS011;4944;52.514;13.192;2023-03-08T14:37:56;3.93;;;3.63;;
9809;SDS011;4944;52.514;13.192;2023-03-08T14:40:25;4.47;;;4.07;;
9809;SDS011;4944;52.514;13.192;2023-03-08T14:42:57;4.10;;;3.70;;
9809;SDS011;4944;52.514;13.192;2023-03-08T14:45:28;4.33;;;4.03;;
9809;SDS011;4944;52.514;13.192;2023-03-08T14:48:00;4.63;;;4.23;;
9809;SDS011;4944;52.514;13.192;2023-03-08T14:50:49;7.00;;;4.60;;
9809;SDS011;4944;52.514;13.192;2023-03-08T14:53:29;4.63;;;4.17;;
9809;SDS011;4944;52.514;13.192;2023-03-08T14:55:58;5.00;;;4.50;;
9809;SDS011;4944;52.514;13.192;2023-03-08T14:58:27;4.30;;;3.97;;
9809;SDS011;4944;52.514;13.192;2023-03-08T15:00:56;5.57;;;4.47;;
9809;SDS011;4944;52.514;13.192;2023-03-08T15:03:25;5.67;;;4.77;;
9809;SDS011;4944;52.514;13.192;2023-03-08T15:05:54;4.40;;;4.10;;
9809;SDS011;4944;52.514;13.192;2023-03-08T15:08:22;5.00;;;4.60;;
9809;SDS011;4944;52.514;13.192;2023-03-08T15:10:49;6.07;;;4.87;;
9809;SDS011;4944;52.514;13.192;2023-03-08T15:13:18;5.67;;;5.27;;
9809;SDS011;4944;52.514;13.192;2023-03-08T15:15:46;5.57;;;5.17;;
9809;SDS011;4944;52.514;13.192;2023-03-08T15:18:14;5.57;;;5.07;;
9809;SDS011;4944;52.514;13.192;2023-03-08T15:20:42;5.23;;;4.23;;